createdAt,value
2022-09-10T00:01:03.623Z,81.97
2022-09-10T00:03:31.410Z,82.27
2022-09-10T00:05:59.239Z,82.04
2022-09-10T00:08:26.983Z,82.53
2022-09-10T00:10:54.774Z,82.41
2022-09-10T00:13:24.438Z,82.05
2022-09-10T00:15:54.609Z,82.44
2022-09-10T00:18:23.583Z,82.33
2022-09-10T00:20:53.483Z,82.80
2022-09-10T00:23:23.740Z,82.58
2022-09-10T00:25:52.104Z,82.43
2022-09-10T00:28:21.455Z,82.77
2022-09-10T00:30:53.158Z,83.00
2022-09-10T00:33:22.296Z,82.87
2022-09-10T00:35:50.491Z,82.57
2022-09-10T00:38:18.837Z,82.72
2022-09-10T00:40:46.879Z,82.61
2022-09-10T00:43:16.492Z,82.63
2022-09-10T00:45:46.685Z,82.58
2022-09-10T00:48:20.289Z,82.82
2022-09-10T00:50:51.806Z,82.86
2022-09-10T00:53:24.066Z,83.01
2022-09-10T00:55:54.878Z,82.67
2022-09-10T00:58:24.523Z,82.60
2022-09-10T01:00:55.107Z,82.80
2022-09-10T01:03:25.660Z,82.53
2022-09-10T01:05:54.666Z,82.44
2022-09-10T01:08:22.565Z,82.53
2022-09-10T01:10:59.717Z,81.97
2022-09-10T01:13:38.842Z,82.30
2022-09-10T01:16:11.461Z,82.83
2022-09-10T01:18:52.476Z,83.11
2022-09-10T01:21:26.575Z,82.92
2022-09-10T01:24:38.966Z,83.04
2022-09-10T01:27:29.642Z,82.97
2022-09-10T01:30:03.344Z,82.98
2022-09-10T01:32:37.559Z,82.98
2022-09-10T01:35:14.515Z,82.95
2022-09-10T01:37:47.985Z,83.06
2022-09-10T01:40:17.685Z,83.56
2022-09-10T01:42:47.166Z,83.60
2022-09-10T01:45:16.128Z,83.66
2022-09-10T01:48:11.886Z,83.48
2022-09-10T01:50:52.569Z,83.24
2022-09-10T01:53:48.330Z,83.48
2022-09-10T01:56:28.880Z,83.50
2022-09-10T01:59:05.097Z,83.50
2022-09-10T02:01:46.905Z,83.65
2022-09-10T02:04:16.845Z,83.70
2022-09-10T02:06:48.825Z,83.78
2022-09-10T02:09:19.216Z,83.72
2022-09-10T02:11:49.116Z,83.71
2022-09-10T02:14:36.440Z,83.98
2022-09-10T02:17:24.250Z,83.98
2022-09-10T02:19:53.809Z,84.07
2022-09-10T02:22:23.714Z,83.86
2022-09-10T02:24:52.913Z,84.24
2022-09-10T02:27:20.803Z,83.86
2022-09-10T02:29:50.666Z,84.25
2022-09-10T02:32:18.481Z,84.15
2022-09-10T02:34:46.327Z,84.19
2022-09-10T02:37:14.088Z,84.30
2022-09-10T02:39:42.272Z,84.21
2022-09-10T02:42:10.331Z,84.46
2022-09-10T02:44:38.045Z,83.80
2022-09-10T02:47:08.284Z,84.27
2022-09-10T02:49:37.101Z,84.07
2022-09-10T02:52:05.227Z,84.02
2022-09-10T02:54:33.167Z,83.58
2022-09-10T02:57:00.957Z,83.70
2022-09-10T02:59:28.979Z,83.35
2022-09-10T03:01:57.677Z,83.44
2022-09-10T03:04:26.805Z,83.54
2022-09-10T03:06:55.378Z,83.41
2022-09-10T03:09:23.504Z,83.62
2022-09-10T03:11:51.858Z,83.76
2022-09-10T03:14:23.145Z,83.50
2022-09-10T03:16:51.093Z,83.48
2022-09-10T03:19:19.358Z,83.65
2022-09-10T03:21:48.540Z,83.51
2022-09-10T03:24:16.466Z,83.50
2022-09-10T03:26:46.289Z,83.41
2022-09-10T03:29:16.495Z,83.38
2022-09-10T03:31:46.671Z,83.53
2022-09-10T03:34:16.192Z,83.78
2022-09-10T03:36:47.574Z,83.86
2022-09-10T03:39:18.640Z,83.83
2022-09-10T03:41:47.118Z,83.77
2022-09-10T03:44:17.133Z,83.44
2022-09-10T03:46:45.541Z,83.80
2022-09-10T03:49:16.483Z,83.69
2022-09-10T03:51:44.363Z,83.73
2022-09-10T03:54:13.992Z,83.64
2022-09-10T03:56:45.383Z,83.60
2022-09-10T03:59:13.330Z,83.71
2022-09-10T04:01:42.949Z,83.37
2022-09-10T04:04:11.232Z,83.13
2022-09-10T04:06:40.487Z,83.49
2022-09-10T04:09:08.415Z,83.23
2022-09-10T04:11:36.233Z,83.12
2022-09-10T04:14:05.967Z,83.39
2022-09-10T04:16:37.122Z,83.25
2022-09-10T04:19:06.715Z,83.59
2022-09-10T04:21:36.196Z,83.65
2022-09-10T04:24:04.169Z,83.70
2022-09-10T04:26:32.194Z,83.62
2022-09-10T04:29:00.099Z,83.80
2022-09-10T04:31:29.289Z,83.41
2022-09-10T04:34:02.080Z,83.14
2022-09-10T04:36:31.375Z,83.60
2022-09-10T04:38:59.877Z,83.75
2022-09-10T04:41:28.109Z,83.56
2022-09-10T04:43:55.940Z,83.79
2022-09-10T04:46:24.683Z,83.54
2022-09-10T04:48:56.053Z,83.69
2022-09-10T04:51:25.827Z,83.52
2022-09-10T04:53:55.244Z,83.78
2022-09-10T04:56:29.044Z,83.51
2022-09-10T04:58:57.001Z,83.23
2022-09-10T05:01:26.031Z,83.50
2022-09-10T05:03:56.096Z,83.23
2022-09-10T05:06:24.304Z,82.93
2022-09-10T05:08:52.083Z,82.71
2022-09-10T05:11:20.753Z,83.04
2022-09-10T05:13:49.354Z,83.43
2022-09-10T05:16:21.340Z,83.30
2022-09-10T05:18:49.406Z,83.42
2022-09-10T05:21:19.587Z,83.46
2022-09-10T05:23:47.992Z,83.38
2022-09-10T05:26:16.677Z,82.94
2022-09-10T05:28:44.768Z,83.24
2022-09-10T05:31:17.237Z,83.10
2022-09-10T05:33:46.327Z,82.95
2022-09-10T05:36:14.733Z,83.27
2022-09-10T05:38:45.760Z,83.26
2022-09-10T05:41:14.531Z,83.40
2022-09-10T05:43:46.765Z,83.56
2022-09-10T05:46:15.171Z,83.37
2022-09-10T05:48:47.129Z,82.92
2022-09-10T05:51:15.189Z,82.60
2022-09-10T05:53:46.153Z,82.74
2022-09-10T05:56:14.605Z,82.49
2022-09-10T05:58:45.034Z,82.88
2022-09-10T06:01:15.444Z,82.49
2022-09-10T06:03:44.633Z,82.35
2022-09-10T06:06:13.293Z,82.35
2022-09-10T06:08:53.950Z,82.29
2022-09-10T06:11:32.887Z,82.15
2022-09-10T06:14:00.722Z,81.87
2022-09-10T06:16:28.858Z,81.58
2022-09-10T06:18:59.588Z,81.30
2022-09-10T06:21:29.251Z,81.33
2022-09-10T06:24:00.865Z,81.58
2022-09-10T06:26:33.135Z,81.45
2022-09-10T06:29:06.285Z,81.51
2022-09-10T06:31:35.401Z,81.26
2022-09-10T06:34:04.209Z,81.37
2022-09-10T06:36:33.934Z,81.61
2022-09-10T06:39:04.461Z,81.73
2022-09-10T06:41:45.843Z,81.53
2022-09-10T06:44:36.235Z,80.91
2022-09-10T06:50:10.602Z,80.74
2022-09-10T06:52:41.588Z,80.73
2022-09-10T06:55:13.589Z,80.98
2022-09-10T06:57:45.576Z,81.41
2022-09-10T07:00:16.549Z,81.90
2022-09-10T07:02:50.578Z,82.17
2022-09-10T07:09:23.192Z,82.98
2022-09-10T07:11:59.266Z,82.37
2022-09-10T07:14:30.295Z,82.75
2022-09-10T07:16:58.992Z,82.46
2022-09-10T07:19:30.739Z,82.83
2022-09-10T07:21:58.624Z,82.78
2022-09-10T07:24:27.020Z,83.13
2022-09-10T07:27:08.579Z,83.38
2022-09-10T07:29:37.453Z,83.86
2022-09-10T07:32:13.249Z,83.52
2022-09-10T07:34:41.470Z,83.81
2022-09-10T07:37:09.703Z,83.65
2022-09-10T07:39:38.198Z,83.97
2022-09-10T07:42:09.161Z,83.61
2022-09-10T07:44:37.771Z,83.45
2022-09-10T07:47:05.731Z,83.28
2022-09-10T07:49:33.958Z,82.96
2022-09-10T07:52:04.837Z,83.03
2022-09-10T07:54:38.679Z,82.63
2022-09-10T07:57:07.976Z,82.44
2022-09-10T07:59:37.105Z,82.56
2022-09-10T08:02:06.401Z,81.82
2022-09-10T08:04:37.555Z,82.18
2022-09-10T08:07:09.388Z,81.97
2022-09-10T08:09:39.349Z,81.34
2022-09-10T08:12:11.362Z,81.57
2022-09-10T08:14:38.993Z,81.29
2022-09-10T08:17:07.767Z,80.78
2022-09-10T08:19:40.514Z,80.72
2022-09-10T08:22:13.311Z,81.26
2022-09-10T08:24:48.564Z,80.91
2022-09-10T08:27:18.705Z,81.37
2022-09-10T08:29:48.422Z,81.25
2022-09-10T08:32:16.277Z,81.20
2022-09-10T08:34:44.037Z,80.95
2022-09-10T08:37:12.921Z,81.67
2022-09-10T08:39:41.529Z,81.67
2022-09-10T08:42:17.409Z,82.61
2022-09-10T08:44:51.787Z,83.18
2022-09-10T08:47:33.401Z,82.56
2022-09-10T08:50:13.703Z,83.16
2022-09-10T08:52:46.831Z,82.84
2022-09-10T08:55:26.300Z,82.58
2022-09-10T08:57:59.300Z,83.03
2022-09-10T09:00:34.623Z,83.01
2022-09-10T09:03:13.422Z,82.85
2022-09-10T09:05:47.152Z,82.29
2022-09-10T09:08:20.082Z,81.87
2022-09-10T09:10:51.475Z,81.60
2022-09-10T09:13:45.457Z,81.16
2022-09-10T09:16:49.085Z,81.12
2022-09-10T09:19:25.929Z,81.12
2022-09-10T09:21:56.440Z,80.16
2022-09-10T09:24:40.740Z,80.57
2022-09-10T09:27:16.125Z,80.59
2022-09-10T09:29:50.979Z,79.68
2022-09-10T09:32:21.957Z,80.16
2022-09-10T09:34:52.196Z,79.13
2022-09-10T09:37:24.050Z,79.77
2022-09-10T09:40:03.830Z,79.04
2022-09-10T09:42:40.197Z,79.83
2022-09-10T09:45:19.957Z,80.07
2022-09-10T09:47:51.161Z,80.25
2022-09-10T09:50:19.401Z,80.30
2022-09-10T09:52:48.091Z,80.40
2022-09-10T09:55:28.304Z,80.56
2022-09-10T09:58:34.644Z,80.29
2022-09-10T10:01:14.557Z,80.72
2022-09-10T10:03:51.596Z,80.84
2022-09-10T10:06:22.215Z,80.85
2022-09-10T10:09:02.054Z,80.41
2022-09-10T10:11:42.926Z,80.28
2022-09-10T10:14:23.758Z,80.36
2022-09-10T10:16:57.381Z,80.01
2022-09-10T10:19:31.652Z,80.50
2022-09-10T10:22:21.300Z,80.72
2022-09-10T10:24:50.530Z,81.26
2022-09-10T10:27:19.241Z,81.47
2022-09-10T10:30:00.220Z,81.48
2022-09-10T10:32:40.388Z,81.65
2022-09-10T10:35:27.594Z,81.24
2022-09-10T10:38:16.721Z,80.96
2022-09-10T10:40:48.618Z,80.63
2022-09-10T10:43:28.075Z,80.16
2022-09-10T10:46:02.218Z,79.64
2022-09-10T10:48:40.944Z,79.02
2022-09-10T10:51:17.239Z,78.72
2022-09-10T10:54:18.325Z,78.71
2022-09-10T10:56:59.874Z,78.44
2022-09-10T10:59:44.647Z,77.73
2022-09-10T11:02:18.851Z,77.83
2022-09-10T11:04:50.553Z,77.67
2022-09-10T11:07:27.345Z,77.16
2022-09-10T11:10:02.346Z,76.79
2022-09-10T11:12:34.840Z,75.29
2022-09-10T11:15:20.756Z,74.24
2022-09-10T11:17:54.432Z,74.09
2022-09-10T11:20:29.900Z,74.57
2022-09-10T11:23:03.894Z,74.70
2022-09-10T11:25:38.091Z,75.05
2022-09-10T11:28:13.849Z,74.98
2022-09-10T11:30:46.280Z,75.26
2022-09-10T11:33:23.306Z,76.22
2022-09-10T11:35:56.758Z,77.34
2022-09-10T11:38:30.532Z,78.70
2022-09-10T11:41:10.179Z,78.94
2022-09-10T11:43:43.118Z,78.70
2022-09-10T11:46:16.125Z,78.56
2022-09-10T11:48:49.953Z,78.15
2022-09-10T11:51:22.261Z,78.26
2022-09-10T11:53:50.118Z,78.17
2022-09-10T11:56:30.057Z,77.69
2022-09-10T11:59:09.133Z,77.73
2022-09-10T12:01:46.798Z,78.20
2022-09-10T12:04:35.743Z,79.91
2022-09-10T12:07:16.209Z,79.57
2022-09-10T12:09:52.775Z,80.66
2022-09-10T12:12:26.886Z,80.55
2022-09-10T12:14:54.975Z,81.26
2022-09-10T12:17:27.214Z,82.26
2022-09-10T12:19:59.470Z,82.05
2022-09-10T12:22:29.971Z,82.14
2022-09-10T12:25:02.271Z,82.66
2022-09-10T12:27:45.735Z,83.28
2022-09-10T12:31:02.825Z,83.39
2022-09-10T12:34:06.619Z,82.78
2022-09-10T12:37:19.775Z,82.67
2022-09-10T12:39:49.578Z,82.11
2022-09-10T12:42:34.569Z,81.29
2022-09-10T12:45:02.435Z,80.67
2022-09-10T12:47:46.782Z,81.04
2022-09-10T12:50:27.775Z,81.34
2022-09-10T12:53:18.140Z,80.83
2022-09-10T12:55:59.604Z,80.12
2022-09-10T12:58:40.729Z,81.08
2022-09-10T13:01:19.426Z,80.80
2022-09-10T13:03:56.057Z,79.53
2022-09-10T13:06:35.993Z,79.05
2022-09-10T13:09:16.819Z,79.73
2022-09-10T13:11:47.701Z,79.60
2022-09-10T13:14:20.652Z,79.01
2022-09-10T13:16:48.772Z,78.88
2022-09-10T13:19:48.886Z,79.10
2022-09-10T13:23:04.265Z,78.08
2022-09-10T13:25:36.675Z,77.85
2022-09-10T13:28:44.883Z,76.88
2022-09-10T13:31:19.375Z,75.66
2022-09-10T13:34:04.727Z,75.09
2022-09-10T13:36:38.837Z,73.83
2022-09-10T13:39:24.945Z,73.32
2022-09-10T13:42:08.331Z,74.42
2022-09-10T13:45:16.493Z,74.59
2022-09-10T13:47:48.414Z,75.41
2022-09-10T13:50:20.463Z,76.01
2022-09-10T13:52:51.231Z,76.35
2022-09-10T13:55:21.254Z,76.22
2022-09-10T13:57:51.010Z,75.92
2022-09-10T14:00:26.211Z,75.94
2022-09-10T14:02:56.174Z,76.46
2022-09-10T14:05:35.334Z,76.35
2022-09-10T14:08:06.182Z,76.68
2022-09-10T14:10:48.594Z,76.62
2022-09-10T14:13:22.359Z,76.87
2022-09-10T14:15:54.310Z,76.88
2022-09-10T14:18:24.545Z,76.10
2022-09-10T14:20:53.398Z,76.14
2022-09-10T14:23:21.460Z,75.82
2022-09-10T14:25:49.288Z,75.95
2022-09-10T14:28:23.219Z,76.15
2022-09-10T14:30:54.321Z,76.01
2022-09-10T14:33:24.353Z,76.37
2022-09-10T14:35:53.265Z,76.11
2022-09-10T14:38:24.274Z,76.57
2022-09-10T14:40:58.738Z,75.51
2022-09-10T14:43:30.117Z,75.37
2022-09-10T14:45:59.695Z,75.14
2022-09-10T14:48:35.582Z,75.92
2022-09-10T14:51:14.418Z,76.11
2022-09-10T14:53:43.456Z,76.20
2022-09-10T14:56:15.575Z,76.18
2022-09-10T14:58:43.976Z,75.54
2022-09-10T15:01:13.213Z,74.83
2022-09-10T15:03:42.266Z,74.54
2022-09-10T15:06:11.364Z,73.36
2022-09-10T15:08:39.114Z,72.03
2022-09-10T15:11:07.935Z,72.50
2022-09-10T15:13:39.432Z,72.67
2022-09-10T15:16:07.711Z,73.12
2022-09-10T15:18:37.068Z,73.36
2022-09-10T15:21:07.087Z,73.21
2022-09-10T15:23:35.034Z,73.47
2022-09-10T15:26:04.955Z,74.10
2022-09-10T15:28:32.807Z,73.27
2022-09-10T15:31:01.159Z,73.06
2022-09-10T15:33:29.025Z,72.32
2022-09-10T15:35:58.197Z,72.33
2022-09-10T15:38:25.949Z,72.24
2022-09-10T15:41:03.380Z,72.10
2022-09-10T15:43:36.718Z,72.54
2022-09-10T15:46:04.699Z,72.67
2022-09-10T15:48:33.550Z,73.25
2022-09-10T15:51:04.271Z,72.98
2022-09-10T15:53:33.883Z,73.42
2022-09-10T15:56:03.286Z,73.73
2022-09-10T15:58:31.363Z,73.63
2022-09-10T16:01:03.951Z,74.56
2022-09-10T16:03:32.070Z,75.61
2022-09-10T16:06:06.661Z,76.54
2022-09-10T16:08:35.436Z,76.74
2022-09-10T16:11:09.631Z,78.03
2022-09-10T16:13:39.727Z,78.71
2022-09-10T16:16:11.037Z,79.68
2022-09-10T16:18:39.173Z,79.76
2022-09-10T16:21:11.481Z,79.82
2022-09-10T16:23:43.284Z,80.03
2022-09-10T16:26:15.903Z,80.96
2022-09-10T16:28:49.071Z,81.26
2022-09-10T16:31:18.931Z,81.50
2022-09-10T16:33:48.384Z,81.68
2022-09-10T16:36:19.036Z,81.73
2022-09-10T16:38:47.212Z,82.04
2022-09-10T16:41:16.287Z,82.16
2022-09-10T16:43:44.202Z,81.90
2022-09-10T16:46:13.366Z,82.51
2022-09-10T16:48:42.226Z,82.65
2022-09-10T16:51:12.851Z,82.36
2022-09-10T16:53:44.294Z,82.55
2022-09-10T16:56:14.853Z,81.97
2022-09-10T16:58:46.890Z,82.31
2022-09-10T17:01:15.626Z,82.11
2022-09-10T17:03:44.856Z,83.18
2022-09-10T17:06:14.268Z,82.32
2022-09-10T17:08:45.087Z,82.86
2022-09-10T17:11:14.208Z,82.61
2022-09-10T17:13:41.877Z,82.19
2022-09-10T17:16:15.342Z,82.19
2022-09-10T17:18:43.786Z,82.74
2022-09-10T17:21:11.770Z,82.76
2022-09-10T17:23:41.336Z,82.93
2022-09-10T17:26:10.547Z,83.07
2022-09-10T17:28:38.194Z,83.17
2022-09-10T17:31:06.399Z,83.17
2022-09-10T17:33:35.332Z,82.67
2022-09-10T17:36:05.030Z,83.27
2022-09-10T17:38:35.182Z,82.67
2022-09-10T17:41:05.616Z,82.91
2022-09-10T17:43:37.652Z,82.97
2022-09-10T17:46:06.718Z,82.77
2022-09-10T17:48:35.785Z,82.49
2022-09-10T17:51:03.568Z,82.35
2022-09-10T17:53:32.311Z,82.16
2022-09-10T17:56:03.842Z,82.13
2022-09-10T17:58:33.161Z,82.28
2022-09-10T18:01:04.801Z,82.26
2022-09-10T18:03:32.941Z,82.78
2022-09-10T18:06:04.294Z,82.49
2022-09-10T18:08:32.538Z,82.39
2022-09-10T18:11:05.916Z,81.88
2022-09-10T18:13:34.211Z,81.80
2022-09-10T18:16:07.627Z,82.21
2022-09-10T18:18:36.039Z,82.01
2022-09-10T18:21:14.214Z,82.75
2022-09-10T18:23:44.329Z,82.19
2022-09-10T18:26:14.311Z,82.64
2022-09-10T18:28:42.468Z,82.53
2022-09-10T18:31:12.270Z,83.40
2022-09-10T18:33:41.716Z,83.39
2022-09-10T18:36:14.858Z,83.98
2022-09-10T18:38:43.013Z,83.84
2022-09-10T18:41:21.549Z,83.34
2022-09-10T18:43:50.816Z,82.56
2022-09-10T18:46:20.842Z,82.27
2022-09-10T18:48:49.224Z,82.64
2022-09-10T18:51:19.327Z,82.37
2022-09-10T18:53:47.947Z,82.46
2022-09-10T18:56:18.035Z,82.34
2022-09-10T18:58:49.425Z,82.73
2022-09-10T19:01:18.447Z,82.33
2022-09-10T19:03:49.987Z,82.36
2022-09-10T19:06:19.564Z,81.55
2022-09-10T19:08:49.606Z,81.69
2022-09-10T19:11:18.977Z,82.01
2022-09-10T19:13:51.382Z,82.88
2022-09-10T19:16:20.078Z,82.36
2022-09-10T19:18:52.436Z,82.17
2022-09-10T19:21:21.135Z,81.79
2022-09-10T19:23:49.851Z,82.35
2022-09-10T19:26:19.123Z,82.40
2022-09-10T19:28:47.879Z,82.33
2022-09-10T19:31:17.651Z,82.60
2022-09-10T19:33:45.528Z,83.05
2022-09-10T19:36:16.471Z,82.87
2022-09-10T19:38:44.501Z,82.94
2022-09-10T19:41:13.689Z,83.02
2022-09-10T19:43:41.858Z,82.98
2022-09-10T19:46:11.581Z,83.03
2022-09-10T19:48:39.946Z,82.57
2022-09-10T19:51:10.000Z,83.86
2022-09-10T19:53:40.384Z,83.52
2022-09-10T19:56:10.179Z,82.89
2022-09-10T19:58:41.986Z,83.05
2022-09-10T20:01:10.830Z,82.81
2022-09-10T20:03:40.316Z,83.00
2022-09-10T20:06:10.627Z,83.25
2022-09-10T20:08:41.567Z,84.16
2022-09-10T20:11:16.287Z,83.40
2022-09-10T20:13:45.180Z,83.64
2022-09-10T20:16:13.832Z,83.99
2022-09-10T20:18:42.315Z,84.07
2022-09-10T20:21:13.887Z,84.09
2022-09-10T20:23:44.744Z,85.02
2022-09-10T20:26:14.508Z,84.58
2022-09-10T20:28:42.844Z,85.37
2022-09-10T20:31:13.014Z,84.96
2022-09-10T20:33:43.430Z,84.37
2022-09-10T20:36:15.092Z,83.81
2022-09-10T20:38:44.555Z,84.35
2022-09-10T20:41:13.300Z,84.35
2022-09-10T20:43:41.453Z,84.80
2022-09-10T20:46:15.918Z,84.68
2022-09-10T20:48:48.810Z,84.34
2022-09-10T20:51:18.112Z,83.70
2022-09-10T20:53:48.461Z,84.43
2022-09-10T20:56:18.860Z,84.42
2022-09-10T20:58:48.035Z,84.85
2022-09-10T21:01:18.878Z,84.70
2022-09-10T21:03:48.045Z,84.18
2022-09-10T21:06:19.678Z,83.78
2022-09-10T21:08:49.842Z,83.74
2022-09-10T21:11:19.334Z,84.18
2022-09-10T21:13:49.652Z,83.91
2022-09-10T21:16:18.917Z,84.07
2022-09-10T21:18:52.238Z,84.85
2022-09-10T21:21:25.707Z,85.44
2022-09-10T21:23:56.600Z,84.88
2022-09-10T21:26:26.848Z,84.86
2022-09-10T21:28:57.238Z,84.35
2022-09-10T21:31:25.670Z,84.46
2022-09-10T21:33:54.627Z,84.26
2022-09-10T21:36:22.713Z,84.14
2022-09-10T21:38:51.953Z,85.30
2022-09-10T21:41:23.630Z,84.63
2022-09-10T21:43:51.958Z,83.43
2022-09-10T21:46:19.745Z,83.61
2022-09-10T21:48:47.641Z,84.51
2022-09-10T21:51:17.843Z,84.13
2022-09-10T21:53:46.614Z,84.97
2022-09-10T21:56:16.670Z,84.94
2022-09-10T21:58:46.774Z,85.02
2022-09-10T22:01:17.340Z,85.14
2022-09-10T22:03:46.563Z,84.78
2022-09-10T22:06:15.482Z,84.84
2022-09-10T22:08:45.643Z,85.68
2022-09-10T22:11:16.139Z,85.72
2022-09-10T22:13:46.761Z,84.83
2022-09-10T22:16:14.954Z,85.78
2022-09-10T22:18:43.296Z,85.18
2022-09-10T22:21:11.144Z,85.82
2022-09-10T22:23:40.488Z,85.13
2022-09-10T22:26:10.138Z,85.06
2022-09-10T22:28:38.389Z,84.83
2022-09-10T22:31:10.044Z,84.38
2022-09-10T22:33:39.051Z,85.22
2022-09-10T22:36:15.287Z,85.39
2022-09-10T22:38:44.078Z,84.73
2022-09-10T22:41:14.108Z,85.03
2022-09-10T22:43:42.744Z,85.22
2022-09-10T22:46:12.784Z,84.99
2022-09-10T22:48:42.648Z,85.14
2022-09-10T22:51:12.288Z,85.29
2022-09-10T22:53:41.282Z,85.51
2022-09-10T22:56:10.082Z,86.28
2022-09-10T22:58:38.062Z,86.71
2022-09-10T23:01:06.796Z,87.10
2022-09-10T23:03:36.670Z,87.37
2022-09-10T23:06:06.211Z,86.49
2022-09-10T23:08:35.526Z,86.42
2022-09-10T23:11:11.292Z,86.25
2022-09-10T23:13:39.951Z,86.51
2022-09-10T23:16:12.241Z,86.81
2022-09-10T23:18:41.995Z,86.44
2022-09-10T23:21:10.586Z,86.45
2022-09-10T23:23:38.496Z,86.87
2022-09-10T23:26:08.801Z,86.41
2022-09-10T23:28:37.346Z,86.39
2022-09-10T23:31:10.454Z,86.26
2022-09-10T23:33:38.283Z,86.51
2022-09-10T23:36:08.179Z,86.79
2022-09-10T23:38:36.623Z,86.80
2022-09-10T23:41:04.576Z,86.94
2022-09-10T23:43:32.493Z,87.43
2022-09-10T23:46:00.426Z,86.94
2022-09-10T23:48:29.573Z,86.87
2022-09-10T23:50:57.715Z,86.73
2022-09-10T23:53:26.874Z,86.41
2022-09-10T23:55:54.663Z,86.63
2022-09-10T23:58:22.742Z,87.48
